sensor_id;sensor_type;location;lat;lon;timestamp;temperature;humidity
50570;DHT22;36525;49.398;7.614;2022-12-04T00:01:16;1.50;99.90
50570;DHT22;36525;49.398;7.614;2022-12-04T00:03:45;1.50;99.90
50570;DHT22;36525;49.398;7.614;2022-12-04T00:06:15;1.50;99.90
50570;DHT22;36525;49.398;7.614;2022-12-04T00:08:44;1.50;99.90
50570;DHT22;36525;49.398;7.614;2022-12-04T00:11:14;1.40;99.90
50570;DHT22;36525;49.398;7.614;2022-12-04T00:13:43;1.40;99.90
50570;DHT22;36525;49.398;7.614;2022-12-04T00:16:13;1.40;99.90
50570;DHT22;36525;49.398;7.614;2022-12-04T00:18:42;1.40;99.90
50570;DHT22;36525;49.398;7.614;2022-12-04T00:21:12;1.40;99.90
50570;DHT22;36525;49.398;7.614;2022-12-04T00:23:40;1.40;99.90
50570;DHT22;36525;49.398;7.614;2022-12-04T00:26:28;1.50;99.90
50570;DHT22;36525;49.398;7.614;2022-12-04T00:28:56;1.50;99.90
50570;DHT22;36525;49.398;7.614;2022-12-04T00:31:26;1.40;99.90
50570;DHT22;36525;49.398;7.614;2022-12-04T00:33:54;1.40;99.90
50570;DHT22;36525;49.398;7.614;2022-12-04T00:36:23;1.40;99.90
50570;DHT22;36525;49.398;7.614;2022-12-04T00:38:51;1.30;99.90
50570;DHT22;36525;49.398;7.614;2022-12-04T00:41:22;1.30;99.90
50570;DHT22;36525;49.398;7.614;2022-12-04T00:43:51;1.30;99.90
50570;DHT22;36525;49.398;7.614;2022-12-04T00:46:18;1.30;99.90
50570;DHT22;36525;49.398;7.614;2022-12-04T00:48:46;1.30;99.90
50570;DHT22;36525;49.398;7.614;2022-12-04T00:51:16;1.30;99.90
50570;DHT22;36525;49.398;7.614;2022-12-04T00:53:44;1.30;99.90
50570;DHT22;36525;49.398;7.614;2022-12-04T00:56:22;1.40;99.90
50570;DHT22;36525;49.398;7.614;2022-12-04T00:58:52;1.30;99.90
50570;DHT22;36525;49.398;7.614;2022-12-04T01:01:21;1.30;99.90
50570;DHT22;36525;49.398;7.614;2022-12-04T01:03:49;1.30;99.90
50570;DHT22;36525;49.398;7.614;2022-12-04T01:06:32;1.30;99.90
50570;DHT22;36525;49.398;7.614;2022-12-04T01:09:02;1.30;99.90
50570;DHT22;36525;49.398;7.614;2022-12-04T01:11:31;1.30;99.90
50570;DHT22;36525;49.398;7.614;2022-12-04T01:13:59;1.30;99.90
50570;DHT22;36525;49.398;7.614;2022-12-04T01:16:33;1.30;99.90
50570;DHT22;36525;49.398;7.614;2022-12-04T01:19:04;1.30;99.90
50570;DHT22;36525;49.398;7.614;2022-12-04T01:21:33;1.40;99.90
50570;DHT22;36525;49.398;7.614;2022-12-04T01:24:00;1.40;99.90
50570;DHT22;36525;49.398;7.614;2022-12-04T01:26:27;1.30;99.90
50570;DHT22;36525;49.398;7.614;2022-12-04T01:28:54;1.20;99.90
50570;DHT22;36525;49.398;7.614;2022-12-04T01:31:22;1.30;99.90
50570;DHT22;36525;49.398;7.614;2022-12-04T01:33:51;1.30;99.90
50570;DHT22;36525;49.398;7.614;2022-12-04T01:36:21;1.20;99.90
50570;DHT22;36525;49.398;7.614;2022-12-04T01:38:50;1.20;99.90
50570;DHT22;36525;49.398;7.614;2022-12-04T01:41:19;1.20;99.90
50570;DHT22;36525;49.398;7.614;2022-12-04T01:46:42;1.20;99.90
50570;DHT22;36525;49.398;7.614;2022-12-04T01:49:17;1.20;99.90
50570;DHT22;36525;49.398;7.614;2022-12-04T01:51:50;1.20;99.90
50570;DHT22;36525;49.398;7.614;2022-12-04T01:54:34;1.20;99.90
50570;DHT22;36525;49.398;7.614;2022-12-04T01:57:11;1.20;99.90
50570;DHT22;36525;49.398;7.614;2022-12-04T02:00:03;1.30;99.90
50570;DHT22;36525;49.398;7.614;2022-12-04T02:02:34;1.30;99.90
50570;DHT22;36525;49.398;7.614;2022-12-04T02:05:05;1.30;99.90
50570;DHT22;36525;49.398;7.614;2022-12-04T02:07:34;1.20;99.90
50570;DHT22;36525;49.398;7.614;2022-12-04T02:10:02;1.20;99.90
50570;DHT22;36525;49.398;7.614;2022-12-04T02:13:15;1.20;99.90
50570;DHT22;36525;49.398;7.614;2022-12-04T02:16:05;1.20;99.90
50570;DHT22;36525;49.398;7.614;2022-12-04T02:21:52;1.00;99.90
50570;DHT22;36525;49.398;7.614;2022-12-04T02:24:42;1.00;99.90
50570;DHT22;36525;49.398;7.614;2022-12-04T02:30:13;1.10;99.90
50570;DHT22;36525;49.398;7.614;2022-12-04T02:32:41;1.10;99.90
50570;DHT22;36525;49.398;7.614;2022-12-04T02:35:20;1.00;99.90
50570;DHT22;36525;49.398;7.614;2022-12-04T02:38:02;1.10;99.90
50570;DHT22;36525;49.398;7.614;2022-12-04T02:40:42;1.10;99.90
50570;DHT22;36525;49.398;7.614;2022-12-04T02:43:16;1.20;99.90
50570;DHT22;36525;49.398;7.614;2022-12-04T02:46:16;1.20;99.90
50570;DHT22;36525;49.398;7.614;2022-12-04T02:48:49;1.20;99.90
50570;DHT22;36525;49.398;7.614;2022-12-04T02:51:19;1.20;99.90
50570;DHT22;36525;49.398;7.614;2022-12-04T02:53:51;1.20;99.90
50570;DHT22;36525;49.398;7.614;2022-12-04T02:56:28;1.30;99.90
50570;DHT22;36525;49.398;7.614;2022-12-04T02:59:01;1.10;99.90
50570;DHT22;36525;49.398;7.614;2022-12-04T03:01:34;1.10;99.90
50570;DHT22;36525;49.398;7.614;2022-12-04T03:04:14;1.10;99.90
50570;DHT22;36525;49.398;7.614;2022-12-04T03:06:48;1.20;99.90
50570;DHT22;36525;49.398;7.614;2022-12-04T03:09:26;1.20;99.90
50570;DHT22;36525;49.398;7.614;2022-12-04T03:12:06;1.30;99.90
50570;DHT22;36525;49.398;7.614;2022-12-04T03:14:39;1.30;99.90
50570;DHT22;36525;49.398;7.614;2022-12-04T03:17:31;1.20;99.90
50570;DHT22;36525;49.398;7.614;2022-12-04T03:20:05;1.10;99.90
50570;DHT22;36525;49.398;7.614;2022-12-04T03:22:38;1.10;99.90
50570;DHT22;36525;49.398;7.614;2022-12-04T03:25:08;1.10;99.90
50570;DHT22;36525;49.398;7.614;2022-12-04T03:27:45;1.20;99.90
50570;DHT22;36525;49.398;7.614;2022-12-04T03:30:22;1.20;99.90
50570;DHT22;36525;49.398;7.614;2022-12-04T03:32:56;1.10;99.90
50570;DHT22;36525;49.398;7.614;2022-12-04T03:35:44;1.10;99.90
50570;DHT22;36525;49.398;7.614;2022-12-04T03:41:47;1.10;99.90
50570;DHT22;36525;49.398;7.614;2022-12-04T03:44:29;1.00;99.90
50570;DHT22;36525;49.398;7.614;2022-12-04T03:47:13;1.00;99.90
50570;DHT22;36525;49.398;7.614;2022-12-04T03:52:45;0.90;99.90
50570;DHT22;36525;49.398;7.614;2022-12-04T03:55:28;1.00;99.90
50570;DHT22;36525;49.398;7.614;2022-12-04T03:58:05;1.00;99.90
50570;DHT22;36525;49.398;7.614;2022-12-04T04:00:38;1.00;99.90
50570;DHT22;36525;49.398;7.614;2022-12-04T04:06:11;1.00;99.90
50570;DHT22;36525;49.398;7.614;2022-12-04T04:08:44;1.00;99.90
50570;DHT22;36525;49.398;7.614;2022-12-04T04:11:21;1.00;99.90
50570;DHT22;36525;49.398;7.614;2022-12-04T04:14:10;1.00;99.90
50570;DHT22;36525;49.398;7.614;2022-12-04T04:17:04;1.00;99.90
50570;DHT22;36525;49.398;7.614;2022-12-04T04:20:00;1.00;99.90
50570;DHT22;36525;49.398;7.614;2022-12-04T04:22:52;1.00;99.90
50570;DHT22;36525;49.398;7.614;2022-12-04T04:25:41;1.00;99.90
50570;DHT22;36525;49.398;7.614;2022-12-04T04:28:33;1.00;99.90
50570;DHT22;36525;49.398;7.614;2022-12-04T04:31:11;0.90;99.90
50570;DHT22;36525;49.398;7.614;2022-12-04T04:33:58;0.90;99.90
50570;DHT22;36525;49.398;7.614;2022-12-04T04:40:21;1.00;99.90
50570;DHT22;36525;49.398;7.614;2022-12-04T04:43:20;0.80;99.90
50570;DHT22;36525;49.398;7.614;2022-12-04T04:46:19;0.80;99.90
50570;DHT22;36525;49.398;7.614;2022-12-04T04:48:55;0.90;99.90
50570;DHT22;36525;49.398;7.614;2022-12-04T04:51:23;0.80;99.90
50570;DHT22;36525;49.398;7.614;2022-12-04T04:53:55;0.80;99.90
50570;DHT22;36525;49.398;7.614;2022-12-04T04:56:24;0.80;99.90
50570;DHT22;36525;49.398;7.614;2022-12-04T04:58:51;0.80;99.90
50570;DHT22;36525;49.398;7.614;2022-12-04T05:01:21;0.80;99.90
50570;DHT22;36525;49.398;7.614;2022-12-04T05:03:49;0.80;99.90
50570;DHT22;36525;49.398;7.614;2022-12-04T05:06:16;0.80;99.90
50570;DHT22;36525;49.398;7.614;2022-12-04T05:08:44;0.80;99.90
50570;DHT22;36525;49.398;7.614;2022-12-04T05:11:13;0.80;99.90
50570;DHT22;36525;49.398;7.614;2022-12-04T05:13:41;0.80;99.90
50570;DHT22;36525;49.398;7.614;2022-12-04T05:16:13;0.70;99.90
50570;DHT22;36525;49.398;7.614;2022-12-04T05:18:41;0.80;99.90
50570;DHT22;36525;49.398;7.614;2022-12-04T05:21:26;0.90;99.90
50570;DHT22;36525;49.398;7.614;2022-12-04T05:23:53;0.80;99.90
50570;DHT22;36525;49.398;7.614;2022-12-04T05:26:20;0.90;99.90
50570;DHT22;36525;49.398;7.614;2022-12-04T05:28:47;0.90;99.90
50570;DHT22;36525;49.398;7.614;2022-12-04T05:31:14;0.90;99.90
50570;DHT22;36525;49.398;7.614;2022-12-04T05:33:41;0.80;99.90
50570;DHT22;36525;49.398;7.614;2022-12-04T05:36:09;0.90;99.90
50570;DHT22;36525;49.398;7.614;2022-12-04T05:38:36;0.80;99.90
50570;DHT22;36525;49.398;7.614;2022-12-04T05:41:05;0.90;99.90
50570;DHT22;36525;49.398;7.614;2022-12-04T05:43:32;1.00;99.90
50570;DHT22;36525;49.398;7.614;2022-12-04T05:46:04;0.90;99.90
50570;DHT22;36525;49.398;7.614;2022-12-04T05:48:34;0.90;99.90
50570;DHT22;36525;49.398;7.614;2022-12-04T05:51:09;0.80;99.90
50570;DHT22;36525;49.398;7.614;2022-12-04T05:53:36;0.90;99.90
50570;DHT22;36525;49.398;7.614;2022-12-04T05:56:04;0.80;99.90
50570;DHT22;36525;49.398;7.614;2022-12-04T05:58:34;0.80;99.90
50570;DHT22;36525;49.398;7.614;2022-12-04T06:01:20;0.80;99.90
50570;DHT22;36525;49.398;7.614;2022-12-04T06:03:48;0.80;99.90
50570;DHT22;36525;49.398;7.614;2022-12-04T06:06:21;0.80;99.90
50570;DHT22;36525;49.398;7.614;2022-12-04T06:08:50;0.90;99.90
50570;DHT22;36525;49.398;7.614;2022-12-04T06:11:20;0.90;99.90
50570;DHT22;36525;49.398;7.614;2022-12-04T06:13:53;0.80;99.90
50570;DHT22;36525;49.398;7.614;2022-12-04T06:16:22;0.70;99.90
50570;DHT22;36525;49.398;7.614;2022-12-04T06:18:57;0.70;99.90
50570;DHT22;36525;49.398;7.614;2022-12-04T06:21:27;0.60;99.90
50570;DHT22;36525;49.398;7.614;2022-12-04T06:23:55;0.70;99.90
50570;DHT22;36525;49.398;7.614;2022-12-04T06:26:23;0.70;99.90
50570;DHT22;36525;49.398;7.614;2022-12-04T06:28:54;0.70;99.90
50570;DHT22;36525;49.398;7.614;2022-12-04T06:31:24;0.70;99.90
50570;DHT22;36525;49.398;7.614;2022-12-04T06:33:53;0.70;99.90
50570;DHT22;36525;49.398;7.614;2022-12-04T06:36:21;0.70;99.90
50570;DHT22;36525;49.398;7.614;2022-12-04T06:38:50;0.80;99.90
50570;DHT22;36525;49.398;7.614;2022-12-04T06:41:19;0.80;99.90
50570;DHT22;36525;49.398;7.614;2022-12-04T06:43:47;0.80;99.90
50570;DHT22;36525;49.398;7.614;2022-12-04T06:46:17;0.80;99.90
50570;DHT22;36525;49.398;7.614;2022-12-04T06:48:46;0.70;99.90
50570;DHT22;36525;49.398;7.614;2022-12-04T06:51:24;0.70;99.90
50570;DHT22;36525;49.398;7.614;2022-12-04T06:53:53;0.70;99.90
50570;DHT22;36525;49.398;7.614;2022-12-04T06:56:25;0.70;99.90
50570;DHT22;36525;49.398;7.614;2022-12-04T06:58:55;0.70;99.90
50570;DHT22;36525;49.398;7.614;2022-12-04T07:01:26;0.60;99.90
50570;DHT22;36525;49.398;7.614;2022-12-04T07:03:56;0.70;99.90
50570;DHT22;36525;49.398;7.614;2022-12-04T07:06:34;0.70;99.90
50570;DHT22;36525;49.398;7.614;2022-12-04T07:11:31;0.80;99.90
50570;DHT22;36525;49.398;7.614;2022-12-04T07:13:59;0.80;99.90
50570;DHT22;36525;49.398;7.614;2022-12-04T07:16:27;0.70;99.90
50570;DHT22;36525;49.398;7.614;2022-12-04T07:18:55;0.80;99.90
50570;DHT22;36525;49.398;7.614;2022-12-04T07:21:25;0.90;99.90
50570;DHT22;36525;49.398;7.614;2022-12-04T07:23:55;0.90;99.90
50570;DHT22;36525;49.398;7.614;2022-12-04T07:26:24;0.80;99.90
50570;DHT22;36525;49.398;7.614;2022-12-04T07:28:53;0.90;99.90
50570;DHT22;36525;49.398;7.614;2022-12-04T07:31:23;0.90;99.90
50570;DHT22;36525;49.398;7.614;2022-12-04T07:33:52;0.90;99.90
50570;DHT22;36525;49.398;7.614;2022-12-04T07:36:21;0.80;99.90
50570;DHT22;36525;49.398;7.614;2022-12-04T07:38:49;0.90;99.90
50570;DHT22;36525;49.398;7.614;2022-12-04T07:41:17;0.90;99.90
50570;DHT22;36525;49.398;7.614;2022-12-04T07:43:45;1.00;99.90
50570;DHT22;36525;49.398;7.614;2022-12-04T07:46:15;1.10;99.90
50570;DHT22;36525;49.398;7.614;2022-12-04T07:48:44;1.10;99.90
50570;DHT22;36525;49.398;7.614;2022-12-04T07:51:20;1.00;99.90
50570;DHT22;36525;49.398;7.614;2022-12-04T07:53:49;1.10;99.90
50570;DHT22;36525;49.398;7.614;2022-12-04T07:56:17;1.00;99.90
50570;DHT22;36525;49.398;7.614;2022-12-04T07:58:45;1.10;99.90
50570;DHT22;36525;49.398;7.614;2022-12-04T08:01:16;1.00;99.90
50570;DHT22;36525;49.398;7.614;2022-12-04T08:03:51;0.90;99.90
50570;DHT22;36525;49.398;7.614;2022-12-04T08:06:23;1.00;99.90
50570;DHT22;36525;49.398;7.614;2022-12-04T08:08:52;1.10;99.90
50570;DHT22;36525;49.398;7.614;2022-12-04T08:11:24;1.10;99.90
50570;DHT22;36525;49.398;7.614;2022-12-04T08:14:00;1.00;99.90
50570;DHT22;36525;49.398;7.614;2022-12-04T08:16:30;0.90;99.90
50570;DHT22;36525;49.398;7.614;2022-12-04T08:18:58;1.00;99.90
50570;DHT22;36525;49.398;7.614;2022-12-04T08:21:28;1.00;99.90
50570;DHT22;36525;49.398;7.614;2022-12-04T08:23:57;0.90;99.90
50570;DHT22;36525;49.398;7.614;2022-12-04T08:26:27;1.00;99.90
50570;DHT22;36525;49.398;7.614;2022-12-04T08:28:56;1.00;99.90
50570;DHT22;36525;49.398;7.614;2022-12-04T08:31:25;1.10;99.90
50570;DHT22;36525;49.398;7.614;2022-12-04T08:33:56;1.00;99.90
50570;DHT22;36525;49.398;7.614;2022-12-04T08:36:24;1.10;99.90
50570;DHT22;36525;49.398;7.614;2022-12-04T08:38:52;1.10;99.90
50570;DHT22;36525;49.398;7.614;2022-12-04T08:41:20;1.10;99.90
50570;DHT22;36525;49.398;7.614;2022-12-04T08:43:50;1.20;99.90
50570;DHT22;36525;49.398;7.614;2022-12-04T08:46:21;1.20;99.90
50570;DHT22;36525;49.398;7.614;2022-12-04T08:48:49;1.20;99.90
50570;DHT22;36525;49.398;7.614;2022-12-04T08:51:21;1.20;99.90
50570;DHT22;36525;49.398;7.614;2022-12-04T08:53:54;1.20;99.90
50570;DHT22;36525;49.398;7.614;2022-12-04T08:56:23;1.20;99.90
50570;DHT22;36525;49.398;7.614;2022-12-04T08:58:51;1.30;99.90
50570;DHT22;36525;49.398;7.614;2022-12-04T09:01:18;1.30;99.90
50570;DHT22;36525;49.398;7.614;2022-12-04T09:03:45;1.30;99.90
50570;DHT22;36525;49.398;7.614;2022-12-04T09:06:13;1.20;99.90
50570;DHT22;36525;49.398;7.614;2022-12-04T09:08:41;1.20;99.90
50570;DHT22;36525;49.398;7.614;2022-12-04T09:11:14;1.30;99.90
50570;DHT22;36525;49.398;7.614;2022-12-04T09:13:46;1.30;99.90
50570;DHT22;36525;49.398;7.614;2022-12-04T09:16:15;1.30;99.90
50570;DHT22;36525;49.398;7.614;2022-12-04T09:18:44;1.40;99.90
50570;DHT22;36525;49.398;7.614;2022-12-04T09:21:14;1.40;99.90
50570;DHT22;36525;49.398;7.614;2022-12-04T09:23:42;1.40;99.90
50570;DHT22;36525;49.398;7.614;2022-12-04T09:26:29;1.50;99.90
50570;DHT22;36525;49.398;7.614;2022-12-04T09:28:59;1.50;99.90
50570;DHT22;36525;49.398;7.614;2022-12-04T09:31:27;1.50;99.90
50570;DHT22;36525;49.398;7.614;2022-12-04T09:33:57;1.50;99.90
50570;DHT22;36525;49.398;7.614;2022-12-04T09:36:25;1.60;99.90
50570;DHT22;36525;49.398;7.614;2022-12-04T09:38:53;1.50;99.90
50570;DHT22;36525;49.398;7.614;2022-12-04T09:44:13;1.50;99.90
50570;DHT22;36525;49.398;7.614;2022-12-04T09:47:08;1.50;99.90
50570;DHT22;36525;49.398;7.614;2022-12-04T09:52:43;1.50;99.90
50570;DHT22;36525;49.398;7.614;2022-12-04T09:55:21;1.60;99.90
50570;DHT22;36525;49.398;7.614;2022-12-04T09:57:51;1.60;99.90
50570;DHT22;36525;49.398;7.614;2022-12-04T10:00:28;1.70;99.90
50570;DHT22;36525;49.398;7.614;2022-12-04T10:03:03;1.80;99.90
50570;DHT22;36525;49.398;7.614;2022-12-04T10:08:30;1.80;99.90
50570;DHT22;36525;49.398;7.614;2022-12-04T10:26:40;1.70;99.90
50570;DHT22;36525;49.398;7.614;2022-12-04T10:29:26;1.80;99.90
50570;DHT22;36525;49.398;7.614;2022-12-04T10:32:02;1.80;99.90
50570;DHT22;36525;49.398;7.614;2022-12-04T10:34:43;1.80;99.90
50570;DHT22;36525;49.398;7.614;2022-12-04T10:37:13;1.80;99.90
50570;DHT22;36525;49.398;7.614;2022-12-04T10:39:57;1.90;99.90
50570;DHT22;36525;49.398;7.614;2022-12-04T10:42:42;1.80;99.90
50570;DHT22;36525;49.398;7.614;2022-12-04T10:45:14;1.80;99.90
50570;DHT22;36525;49.398;7.614;2022-12-04T10:47:44;1.90;99.90
50570;DHT22;36525;49.398;7.614;2022-12-04T10:50:15;1.90;99.90
50570;DHT22;36525;49.398;7.614;2022-12-04T10:52:44;2.00;99.90
50570;DHT22;36525;49.398;7.614;2022-12-04T10:55:11;2.10;99.90
50570;DHT22;36525;49.398;7.614;2022-12-04T10:57:42;2.00;99.90
50570;DHT22;36525;49.398;7.614;2022-12-04T11:03:03;1.90;99.90
50570;DHT22;36525;49.398;7.614;2022-12-04T11:05:44;2.00;99.90
50570;DHT22;36525;49.398;7.614;2022-12-04T11:08:22;2.10;99.90
50570;DHT22;36525;49.398;7.614;2022-12-04T11:11:12;2.10;99.90
50570;DHT22;36525;49.398;7.614;2022-12-04T11:13:41;2.10;99.90
50570;DHT22;36525;49.398;7.614;2022-12-04T11:19:01;2.00;99.90
50570;DHT22;36525;49.398;7.614;2022-12-04T11:21:30;2.00;99.90
50570;DHT22;36525;49.398;7.614;2022-12-04T11:23:57;1.90;99.90
50570;DHT22;36525;49.398;7.614;2022-12-04T11:26:34;2.00;99.90
50570;DHT22;36525;49.398;7.614;2022-12-04T11:29:03;2.00;99.90
50570;DHT22;36525;49.398;7.614;2022-12-04T11:31:31;2.10;99.90
50570;DHT22;36525;49.398;7.614;2022-12-04T11:34:04;2.00;99.90
50570;DHT22;36525;49.398;7.614;2022-12-04T11:36:36;2.10;99.90
50570;DHT22;36525;49.398;7.614;2022-12-04T11:39:16;2.00;99.90
50570;DHT22;36525;49.398;7.614;2022-12-04T11:41:44;2.00;99.90
50570;DHT22;36525;49.398;7.614;2022-12-04T11:44:24;2.00;99.90
50570;DHT22;36525;49.398;7.614;2022-12-04T11:46:55;2.10;99.90
50570;DHT22;36525;49.398;7.614;2022-12-04T11:49:25;2.00;99.90
50570;DHT22;36525;49.398;7.614;2022-12-04T11:55:01;2.00;99.90
50570;DHT22;36525;49.398;7.614;2022-12-04T12:00:20;2.00;99.90
50570;DHT22;36525;49.398;7.614;2022-12-04T12:03:22;2.00;99.90
50570;DHT22;36525;49.398;7.614;2022-12-04T12:06:17;2.10;99.90
50570;DHT22;36525;49.398;7.614;2022-12-04T12:21:59;2.00;99.90
50570;DHT22;36525;49.398;7.614;2022-12-04T12:24:50;2.00;99.90
50570;DHT22;36525;49.398;7.614;2022-12-04T12:33:23;1.90;99.90
50570;DHT22;36525;49.398;7.614;2022-12-04T12:36:08;2.00;99.90
50570;DHT22;36525;49.398;7.614;2022-12-04T12:38:59;1.90;99.90
50570;DHT22;36525;49.398;7.614;2022-12-04T12:41:40;2.00;99.90
50570;DHT22;36525;49.398;7.614;2022-12-04T12:44:21;2.00;99.90
50570;DHT22;36525;49.398;7.614;2022-12-04T12:47:07;1.90;99.90
50570;DHT22;36525;49.398;7.614;2022-12-04T12:49:58;1.70;99.90
50570;DHT22;36525;49.398;7.614;2022-12-04T12:56:07;1.80;99.90
50570;DHT22;36525;49.398;7.614;2022-12-04T12:58:32;1.80;99.90
50570;DHT22;36525;49.398;7.614;2022-12-04T13:01:10;1.80;99.90
50570;DHT22;36525;49.398;7.614;2022-12-04T13:04:04;1.80;99.90
50570;DHT22;36525;49.398;7.614;2022-12-04T13:06:41;1.80;99.90
50570;DHT22;36525;49.398;7.614;2022-12-04T13:09:21;1.80;99.90
50570;DHT22;36525;49.398;7.614;2022-12-04T13:12:02;1.80;99.90
50570;DHT22;36525;49.398;7.614;2022-12-04T13:14:32;1.90;99.90
50570;DHT22;36525;49.398;7.614;2022-12-04T13:17:29;2.10;99.90
50570;DHT22;36525;49.398;7.614;2022-12-04T13:20:01;2.10;99.90
50570;DHT22;36525;49.398;7.614;2022-12-04T13:31:53;1.90;99.90
50570;DHT22;36525;49.398;7.614;2022-12-04T13:40:43;1.80;99.90
50570;DHT22;36525;49.398;7.614;2022-12-04T13:51:46;2.10;99.90
50570;DHT22;36525;49.398;7.614;2022-12-04T13:56:43;2.10;99.90
50570;DHT22;36525;49.398;7.614;2022-12-04T14:02:01;2.00;99.90
50570;DHT22;36525;49.398;7.614;2022-12-04T14:05:05;2.00;99.90
50570;DHT22;36525;49.398;7.614;2022-12-04T14:07:36;2.10;99.90
50570;DHT22;36525;49.398;7.614;2022-12-04T14:10:33;2.00;99.90
50570;DHT22;36525;49.398;7.614;2022-12-04T14:13:20;2.00;99.90
50570;DHT22;36525;49.398;7.614;2022-12-04T14:16:05;2.00;99.90
50570;DHT22;36525;49.398;7.614;2022-12-04T14:18:35;2.00;99.90
50570;DHT22;36525;49.398;7.614;2022-12-04T14:21:05;1.90;99.90
50570;DHT22;36525;49.398;7.614;2022-12-04T14:23:36;1.90;99.90
50570;DHT22;36525;49.398;7.614;2022-12-04T14:26:04;1.90;99.90
50570;DHT22;36525;49.398;7.614;2022-12-04T14:28:45;2.00;99.90
50570;DHT22;36525;49.398;7.614;2022-12-04T14:31:28;2.00;99.90
50570;DHT22;36525;49.398;7.614;2022-12-04T14:34:18;2.00;99.90
50570;DHT22;36525;49.398;7.614;2022-12-04T14:36:50;1.90;99.90
50570;DHT22;36525;49.398;7.614;2022-12-04T14:39:33;1.90;99.90
50570;DHT22;36525;49.398;7.614;2022-12-04T14:44:58;2.00;99.90
50570;DHT22;36525;49.398;7.614;2022-12-04T14:47:49;1.90;99.90
50570;DHT22;36525;49.398;7.614;2022-12-04T14:53:54;1.90;99.90
50570;DHT22;36525;49.398;7.614;2022-12-04T14:56:41;1.90;99.90
50570;DHT22;36525;49.398;7.614;2022-12-04T14:59:43;1.80;99.90
50570;DHT22;36525;49.398;7.614;2022-12-04T15:03:00;1.80;99.90
50570;DHT22;36525;49.398;7.614;2022-12-04T15:05:17;1.90;99.90
50570;DHT22;36525;49.398;7.614;2022-12-04T15:07:50;1.90;99.90
50570;DHT22;36525;49.398;7.614;2022-12-04T15:10:38;1.80;99.90
50570;DHT22;36525;49.398;7.614;2022-12-04T15:13:34;1.90;99.90
50570;DHT22;36525;49.398;7.614;2022-12-04T15:16:20;1.90;99.90
50570;DHT22;36525;49.398;7.614;2022-12-04T15:18:59;1.90;99.90
50570;DHT22;36525;49.398;7.614;2022-12-04T15:21:36;2.00;99.90
50570;DHT22;36525;49.398;7.614;2022-12-04T15:24:17;1.90;99.90
50570;DHT22;36525;49.398;7.614;2022-12-04T15:26:51;1.90;99.90
50570;DHT22;36525;49.398;7.614;2022-12-04T15:29:26;1.90;99.90
50570;DHT22;36525;49.398;7.614;2022-12-04T15:31:58;1.90;99.90
50570;DHT22;36525;49.398;7.614;2022-12-04T15:34:36;2.00;99.90
50570;DHT22;36525;49.398;7.614;2022-12-04T15:37:20;1.90;99.90
50570;DHT22;36525;49.398;7.614;2022-12-04T15:39:57;1.90;99.90
50570;DHT22;36525;49.398;7.614;2022-12-04T15:42:27;2.00;99.90
50570;DHT22;36525;49.398;7.614;2022-12-04T15:45:00;1.90;99.90
50570;DHT22;36525;49.398;7.614;2022-12-04T15:47:30;1.90;99.90
50570;DHT22;36525;49.398;7.614;2022-12-04T15:52:35;1.90;99.90
50570;DHT22;36525;49.398;7.614;2022-12-04T15:55:07;1.90;99.90
50570;DHT22;36525;49.398;7.614;2022-12-04T15:57:41;1.90;99.90
50570;DHT22;36525;49.398;7.614;2022-12-04T16:00:36;1.90;99.90
50570;DHT22;36525;49.398;7.614;2022-12-04T16:06:24;1.90;99.90
50570;DHT22;36525;49.398;7.614;2022-12-04T16:11:42;1.80;99.90
50570;DHT22;36525;49.398;7.614;2022-12-04T16:14:18;1.80;99.90
50570;DHT22;36525;49.398;7.614;2022-12-04T16:16:47;1.80;99.90
50570;DHT22;36525;49.398;7.614;2022-12-04T16:21:58;1.70;99.90
50570;DHT22;36525;49.398;7.614;2022-12-04T16:24:27;1.70;99.90
50570;DHT22;36525;49.398;7.614;2022-12-04T16:26:55;1.70;99.90
50570;DHT22;36525;49.398;7.614;2022-12-04T16:29:22;1.70;99.90
50570;DHT22;36525;49.398;7.614;2022-12-04T16:31:50;1.70;99.90
50570;DHT22;36525;49.398;7.614;2022-12-04T16:34:17;1.70;99.90
50570;DHT22;36525;49.398;7.614;2022-12-04T16:36:44;1.70;99.90
50570;DHT22;36525;49.398;7.614;2022-12-04T16:39:11;1.70;99.90
50570;DHT22;36525;49.398;7.614;2022-12-04T16:41:39;1.80;99.90
50570;DHT22;36525;49.398;7.614;2022-12-04T16:44:12;1.80;99.90
50570;DHT22;36525;49.398;7.614;2022-12-04T16:46:41;1.80;99.90
50570;DHT22;36525;49.398;7.614;2022-12-04T16:49:12;1.70;99.90
50570;DHT22;36525;49.398;7.614;2022-12-04T16:51:45;1.70;99.90
50570;DHT22;36525;49.398;7.614;2022-12-04T16:54:15;1.70;99.90
50570;DHT22;36525;49.398;7.614;2022-12-04T16:56:43;1.70;99.90
50570;DHT22;36525;49.398;7.614;2022-12-04T16:59:10;1.70;99.90
50570;DHT22;36525;49.398;7.614;2022-12-04T17:01:44;1.70;99.90
50570;DHT22;36525;49.398;7.614;2022-12-04T17:04:14;1.80;99.90
50570;DHT22;36525;49.398;7.614;2022-12-04T17:06:43;1.80;99.90
50570;DHT22;36525;49.398;7.614;2022-12-04T17:09:11;1.80;99.90
50570;DHT22;36525;49.398;7.614;2022-12-04T17:11:39;1.80;99.90
50570;DHT22;36525;49.398;7.614;2022-12-04T17:14:06;1.80;99.90
50570;DHT22;36525;49.398;7.614;2022-12-04T17:16:41;1.70;99.90
50570;DHT22;36525;49.398;7.614;2022-12-04T17:19:10;1.80;99.90
50570;DHT22;36525;49.398;7.614;2022-12-04T17:21:37;1.80;99.90
50570;DHT22;36525;49.398;7.614;2022-12-04T17:24:06;1.80;99.90
50570;DHT22;36525;49.398;7.614;2022-12-04T17:26:33;1.70;99.90
50570;DHT22;36525;49.398;7.614;2022-12-04T17:29:00;1.70;99.90
50570;DHT22;36525;49.398;7.614;2022-12-04T17:31:27;1.80;99.90
50570;DHT22;36525;49.398;7.614;2022-12-04T17:33:55;1.90;99.90
50570;DHT22;36525;49.398;7.614;2022-12-04T17:36:23;1.80;99.90
50570;DHT22;36525;49.398;7.614;2022-12-04T17:38:56;1.80;99.90
50570;DHT22;36525;49.398;7.614;2022-12-04T17:41:24;1.80;99.90
50570;DHT22;36525;49.398;7.614;2022-12-04T17:43:51;1.80;99.90
50570;DHT22;36525;49.398;7.614;2022-12-04T17:46:20;1.80;99.90
50570;DHT22;36525;49.398;7.614;2022-12-04T17:48:50;1.90;99.90
50570;DHT22;36525;49.398;7.614;2022-12-04T17:51:20;1.90;99.90
50570;DHT22;36525;49.398;7.614;2022-12-04T17:53:48;1.80;99.90
50570;DHT22;36525;49.398;7.614;2022-12-04T17:56:21;1.80;99.90
50570;DHT22;36525;49.398;7.614;2022-12-04T17:58:49;1.90;99.90
50570;DHT22;36525;49.398;7.614;2022-12-04T18:01:25;1.90;99.90
50570;DHT22;36525;49.398;7.614;2022-12-04T18:03:56;1.90;99.90
50570;DHT22;36525;49.398;7.614;2022-12-04T18:06:37;1.90;99.90
50570;DHT22;36525;49.398;7.614;2022-12-04T18:09:07;1.90;99.90
50570;DHT22;36525;49.398;7.614;2022-12-04T18:11:37;1.90;99.90
50570;DHT22;36525;49.398;7.614;2022-12-04T18:14:07;1.90;99.90
50570;DHT22;36525;49.398;7.614;2022-12-04T18:16:40;1.90;99.90
50570;DHT22;36525;49.398;7.614;2022-12-04T18:19:09;1.90;99.90
50570;DHT22;36525;49.398;7.614;2022-12-04T18:21:36;1.80;99.90
50570;DHT22;36525;49.398;7.614;2022-12-04T18:24:04;1.90;99.90
50570;DHT22;36525;49.398;7.614;2022-12-04T18:26:37;1.90;99.90
50570;DHT22;36525;49.398;7.614;2022-12-04T18:29:06;2.00;99.90
50570;DHT22;36525;49.398;7.614;2022-12-04T18:31:33;2.10;99.90
50570;DHT22;36525;49.398;7.614;2022-12-04T18:34:00;2.10;99.90
50570;DHT22;36525;49.398;7.614;2022-12-04T18:36:29;2.00;99.90